sensor_id;sensor_type;location;lat;lon;timestamp;pressure;altitude;pressure_sealevel;temperature;humidity
7930;BME280;4010;42.698;23.124;2022-09-03T00:01:12;16349.72;;;-140.64;100.00
7930;BME280;4010;42.698;23.124;2022-09-03T00:03:45;14560.53;;;-140.64;100.00
7930;BME280;4010;42.698;23.124;2022-09-03T00:06:16;13027.72;;;-140.64;100.00
7930;BME280;4010;42.698;23.124;2022-09-03T00:08:46;13027.72;;;-140.64;100.00
7930;BME280;4010;42.698;23.124;2022-09-03T00:11:18;13794.03;;;-140.64;100.00
7930;BME280;4010;42.698;23.124;2022-09-03T00:13:50;15071.63;;;-140.64;100.00
7930;BME280;4010;42.698;23.124;2022-09-03T00:16:20;14305.00;;;-140.64;100.00
7930;BME280;4010;42.698;23.124;2022-09-03T00:18:52;15838.41;;;-140.64;100.00
7930;BME280;4010;42.698;23.124;2022-09-03T00:21:40;15327.19;;;-140.64;100.00
7930;BME280;4010;42.698;23.124;2022-09-03T00:24:12;18651.53;;;-140.64;100.00
7930;BME280;4010;42.698;23.124;2022-09-03T00:26:43;21979.16;;;-140.64;100.00
7930;BME280;4010;42.698;23.124;2022-09-03T00:29:13;22747.56;;;-140.64;100.00
7930;BME280;4010;42.698;23.124;2022-09-03T00:31:44;23259.94;;;-140.64;100.00
7930;BME280;4010;42.698;23.124;2022-09-03T00:34:15;23516.13;;;-140.64;100.00
7930;BME280;4010;42.698;23.124;2022-09-03T00:36:47;20698.91;;;-140.64;100.00
7930;BME280;4010;42.698;23.124;2022-09-03T00:39:16;19931.00;;;-140.64;100.00
7930;BME280;4010;42.698;23.124;2022-09-03T00:41:55;20186.94;;;-140.64;100.00
7930;BME280;4010;42.698;23.124;2022-09-03T00:47:24;19931.00;;;-140.64;100.00
7930;BME280;4010;42.698;23.124;2022-09-03T00:50:02;21723.09;;;-140.64;100.00
7930;BME280;4010;42.698;23.124;2022-09-03T00:52:43;21723.09;;;-140.64;100.00
7930;BME280;4010;42.698;23.124;2022-09-03T00:55:25;20698.91;;;-140.64;100.00
7930;BME280;4010;42.698;23.124;2022-09-03T00:58:05;20186.94;;;-140.64;100.00
7930;BME280;4010;42.698;23.124;2022-09-03T01:00:36;21210.97;;;-140.64;100.00
7930;BME280;4010;42.698;23.124;2022-09-03T01:03:06;18395.69;;;-140.64;100.00
7930;BME280;4010;42.698;23.124;2022-09-03T01:05:43;17372.53;;;-140.64;100.00
7930;BME280;4010;42.698;23.124;2022-09-03T01:08:38;16605.41;;;-140.64;100.00
7930;BME280;4010;42.698;23.124;2022-09-03T01:11:19;17372.53;;;-140.64;100.00
7930;BME280;4010;42.698;23.124;2022-09-03T01:13:56;19419.16;;;-140.64;100.00
7930;BME280;4010;42.698;23.124;2022-09-03T01:16:31;18139.88;;;-140.64;100.00
7930;BME280;4010;42.698;23.124;2022-09-03T01:19:10;18651.53;;;-140.64;100.00
7930;BME280;4010;42.698;23.124;2022-09-03T01:22:06;18139.88;;;-140.64;100.00
7930;BME280;4010;42.698;23.124;2022-09-03T01:25:11;16349.72;;;-140.64;100.00
7930;BME280;4010;42.698;23.124;2022-09-03T01:27:47;16349.72;;;-140.64;100.00
7930;BME280;4010;42.698;23.124;2022-09-03T01:30:20;16349.72;;;-140.64;100.00
7930;BME280;4010;42.698;23.124;2022-09-03T01:32:53;15838.41;;;-140.64;100.00
7930;BME280;4010;42.698;23.124;2022-09-03T01:35:26;16605.41;;;-140.64;100.00
7930;BME280;4010;42.698;23.124;2022-09-03T01:38:08;15838.41;;;-140.64;100.00
7930;BME280;4010;42.698;23.124;2022-09-03T01:40:41;14816.06;;;-140.64;100.00
7930;BME280;4010;42.698;23.124;2022-09-03T01:43:23;13283.13;;;-140.64;100.00
7930;BME280;4010;42.698;23.124;2022-09-03T01:46:03;13538.56;;;-140.64;100.00
7930;BME280;4010;42.698;23.124;2022-09-03T01:48:42;13794.03;;;-140.64;100.00
7930;BME280;4010;42.698;23.124;2022-09-03T01:51:17;14560.53;;;-140.64;100.00
7930;BME280;4010;42.698;23.124;2022-09-03T01:53:59;16349.72;;;-140.64;100.00
7930;BME280;4010;42.698;23.124;2022-09-03T01:56:42;15327.19;;;-140.64;100.00
7930;BME280;4010;42.698;23.124;2022-09-03T01:59:16;16349.72;;;-140.64;100.00
7930;BME280;4010;42.698;23.124;2022-09-03T02:01:52;18651.53;;;-140.64;100.00
7930;BME280;4010;42.698;23.124;2022-09-03T02:04:22;18651.53;;;-140.64;100.00
7930;BME280;4010;42.698;23.124;2022-09-03T02:06:50;20442.91;;;-140.64;100.00
7930;BME280;4010;42.698;23.124;2022-09-03T02:09:18;19675.06;;;-140.64;100.00
7930;BME280;4010;42.698;23.124;2022-09-03T02:11:52;18139.88;;;-140.64;100.00
7930;BME280;4010;42.698;23.124;2022-09-03T02:14:22;18907.38;;;-140.64;100.00
7930;BME280;4010;42.698;23.124;2022-09-03T02:16:51;15838.41;;;-140.64;100.00
7930;BME280;4010;42.698;23.124;2022-09-03T02:19:18;16094.06;;;-140.64;100.00
7930;BME280;4010;42.698;23.124;2022-09-03T02:21:48;17116.81;;;-140.64;100.00
7930;BME280;4010;42.698;23.124;2022-09-03T02:24:16;19163.25;;;-140.64;100.00
7930;BME280;4010;42.698;23.124;2022-09-03T02:26:43;19419.16;;;-140.64;100.00
7930;BME280;4010;42.698;23.124;2022-09-03T02:29:11;20442.91;;;-140.64;100.00
7930;BME280;4010;42.698;23.124;2022-09-03T02:31:38;20186.94;;;-140.64;100.00
7930;BME280;4010;42.698;23.124;2022-09-03T02:34:06;20954.91;;;-140.64;100.00
7930;BME280;4010;42.698;23.124;2022-09-03T02:36:36;21467.00;;;-140.64;100.00
7930;BME280;4010;42.698;23.124;2022-09-03T02:39:04;19419.16;;;-140.64;100.00
7930;BME280;4010;42.698;23.124;2022-09-03T02:41:32;19675.06;;;-140.64;100.00
7930;BME280;4010;42.698;23.124;2022-09-03T02:44:02;21210.97;;;-140.64;100.00
7930;BME280;4010;42.698;23.124;2022-09-03T02:46:34;22235.28;;;-140.64;100.00
7930;BME280;4010;42.698;23.124;2022-09-03T02:49:02;19931.00;;;-140.64;100.00
7930;BME280;4010;42.698;23.124;2022-09-03T02:51:34;19675.06;;;-140.64;100.00
7930;BME280;4010;42.698;23.124;2022-09-03T02:54:01;21723.09;;;-140.64;100.00
7930;BME280;4010;42.698;23.124;2022-09-03T02:56:28;23516.13;;;-140.64;100.00
7930;BME280;4010;42.698;23.124;2022-09-03T02:58:55;20442.91;;;-140.64;100.00
7930;BME280;4010;42.698;23.124;2022-09-03T03:01:22;18907.38;;;-140.64;100.00
7930;BME280;4010;42.698;23.124;2022-09-03T03:03:48;20442.91;;;-140.64;100.00
7930;BME280;4010;42.698;23.124;2022-09-03T03:06:15;18907.38;;;-140.64;100.00
7930;BME280;4010;42.698;23.124;2022-09-03T03:08:47;18907.38;;;-140.64;100.00
7930;BME280;4010;42.698;23.124;2022-09-03T03:11:14;18395.69;;;-140.64;100.00
7930;BME280;4010;42.698;23.124;2022-09-03T03:13:43;18139.88;;;-140.64;100.00
7930;BME280;4010;42.698;23.124;2022-09-03T03:16:11;17372.53;;;-140.64;100.00
7930;BME280;4010;42.698;23.124;2022-09-03T03:18:38;18139.88;;;-140.64;100.00
7930;BME280;4010;42.698;23.124;2022-09-03T03:21:05;19675.06;;;-140.64;100.00
7930;BME280;4010;42.698;23.124;2022-09-03T03:23:32;18651.53;;;-140.64;100.00
7930;BME280;4010;42.698;23.124;2022-09-03T03:26:02;19931.00;;;-140.64;100.00
7930;BME280;4010;42.698;23.124;2022-09-03T03:28:29;21979.16;;;-140.64;100.00
7930;BME280;4010;42.698;23.124;2022-09-03T03:30:58;21467.00;;;-140.64;100.00
7930;BME280;4010;42.698;23.124;2022-09-03T03:33:30;20186.94;;;-140.64;100.00
7930;BME280;4010;42.698;23.124;2022-09-03T03:35:57;22235.28;;;-140.64;100.00
7930;BME280;4010;42.698;23.124;2022-09-03T03:38:24;22235.28;;;-140.64;100.00
7930;BME280;4010;42.698;23.124;2022-09-03T03:40:51;24284.88;;;-140.64;100.00
7930;BME280;4010;42.698;23.124;2022-09-03T03:43:19;26592.19;;;-140.64;100.00
7930;BME280;4010;42.698;23.124;2022-09-03T03:45:55;24541.16;;;-140.64;100.00
7930;BME280;4010;42.698;23.124;2022-09-03T03:48:22;26079.31;;;-140.64;100.00
7930;BME280;4010;42.698;23.124;2022-09-03T03:50:48;24541.16;;;-140.64;100.00
7930;BME280;4010;42.698;23.124;2022-09-03T03:53:15;22235.28;;;-140.64;100.00
7930;BME280;4010;42.698;23.124;2022-09-03T03:55:42;20186.94;;;-140.64;100.00
7930;BME280;4010;42.698;23.124;2022-09-03T03:58:09;19163.25;;;-140.64;100.00
7930;BME280;4010;42.698;23.124;2022-09-03T04:00:37;19675.06;;;-140.64;100.00
7930;BME280;4010;42.698;23.124;2022-09-03T04:03:03;16861.09;;;-140.64;100.00
7930;BME280;4010;42.698;23.124;2022-09-03T04:05:30;15071.63;;;-140.64;100.00
7930;BME280;4010;42.698;23.124;2022-09-03T04:08:00;14816.06;;;-140.64;100.00
7930;BME280;4010;42.698;23.124;2022-09-03T04:10:27;13538.56;;;-140.64;100.00
7930;BME280;4010;42.698;23.124;2022-09-03T04:12:54;11750.91;;;-140.64;100.00
7930;BME280;4010;42.698;23.124;2022-09-03T04:15:21;13283.13;;;-140.64;100.00
7930;BME280;4010;42.698;23.124;2022-09-03T04:17:49;14049.50;;;-140.64;100.00
7930;BME280;4010;42.698;23.124;2022-09-03T04:20:17;14049.50;;;-140.64;100.00
7930;BME280;4010;42.698;23.124;2022-09-03T04:22:43;14816.06;;;-140.64;100.00
7930;BME280;4010;42.698;23.124;2022-09-03T04:25:10;17628.28;;;-140.64;100.00
7930;BME280;4010;42.698;23.124;2022-09-03T04:27:37;17116.81;;;-140.64;100.00
7930;BME280;4010;42.698;23.124;2022-09-03T04:30:05;19675.06;;;-140.64;100.00
7930;BME280;4010;42.698;23.124;2022-09-03T04:32:32;23259.94;;;-140.64;100.00
7930;BME280;4010;42.698;23.124;2022-09-03T04:35:17;27361.66;;;-140.64;100.00
7930;BME280;4010;42.698;23.124;2022-09-03T04:37:45;27361.66;;;-140.64;100.00
7930;BME280;4010;42.698;23.124;2022-09-03T04:40:12;28901.09;;;-140.64;100.00
7930;BME280;4010;42.698;23.124;2022-09-03T04:42:39;28644.47;;;-140.64;100.00
7930;BME280;4010;42.698;23.124;2022-09-03T04:45:06;32239.03;;;-140.64;100.00
7930;BME280;4010;42.698;23.124;2022-09-03T04:47:33;31982.13;;;-140.64;100.00
7930;BME280;4010;42.698;23.124;2022-09-03T04:50:01;34294.78;;;-140.64;100.00
7930;BME280;4010;42.698;23.124;2022-09-03T04:52:29;34551.84;;;-140.64;100.00
7930;BME280;4010;42.698;23.124;2022-09-03T04:54:56;31725.28;;;-140.64;100.00
7930;BME280;4010;42.698;23.124;2022-09-03T04:57:23;29414.41;;;-140.64;100.00
7930;BME280;4010;42.698;23.124;2022-09-03T04:59:49;30441.25;;;-140.64;100.00
7930;BME280;4010;42.698;23.124;2022-09-03T05:02:16;33266.75;;;-140.64;100.00
7930;BME280;4010;42.698;23.124;2022-09-03T05:04:46;36351.81;;;-140.64;100.00
7930;BME280;4010;42.698;23.124;2022-09-03T05:07:13;44850.38;;;-140.64;100.00
7930;BME280;4010;42.698;23.124;2022-09-03T05:09:41;47688.00;;;-140.64;100.00
7930;BME280;4010;42.698;23.124;2022-09-03T05:12:07;46397.88;;;-140.64;100.00
7930;BME280;4010;42.698;23.124;2022-09-03T05:14:35;58803.50;;;-140.64;100.00
7930;BME280;4010;42.698;23.124;2022-09-03T05:17:02;55697.81;;;-140.64;100.00
7930;BME280;4010;42.698;23.124;2022-09-03T05:19:28;71514.47;;;-140.64;100.00
7930;BME280;4010;42.698;23.124;2022-09-03T05:21:55;78538.72;;;-140.64;100.00
7930;BME280;4010;42.698;23.124;2022-09-03T05:24:22;103368.09;;;-140.64;100.00
7930;BME280;4010;42.698;23.124;2022-09-03T05:26:50;88971.47;;;-140.64;100.00
7930;BME280;4010;42.698;23.124;2022-09-03T05:29:17;109143.44;;;-140.64;100.00
7930;BME280;4010;42.698;23.124;2022-09-03T05:31:44;118349.16;;;-140.64;100.00
7930;BME280;4010;42.698;23.124;2022-09-03T05:34:11;117585.72;;;-140.64;100.00
7930;BME280;4010;42.698;23.124;2022-09-03T05:36:37;118349.16;;;-140.64;100.00
7930;BME280;4010;42.698;23.124;2022-09-03T05:39:05;118349.16;;;-140.64;100.00
7930;BME280;4010;42.698;23.124;2022-09-03T05:41:32;118349.16;;;-140.64;100.00
7930;BME280;4010;42.698;23.124;2022-09-03T05:44:01;118349.16;;;-140.64;100.00
7930;BME280;4010;42.698;23.124;2022-09-03T05:46:29;118349.16;;;-140.64;100.00
7930;BME280;4010;42.698;23.124;2022-09-03T05:48:57;118349.16;;;-140.64;100.00
7930;BME280;4010;42.698;23.124;2022-09-03T05:51:24;118349.16;;;-140.64;100.00
7930;BME280;4010;42.698;23.124;2022-09-03T05:53:51;118349.16;;;-140.64;100.00
7930;BME280;4010;42.698;23.124;2022-09-03T05:56:21;118349.16;;;-140.64;100.00
7930;BME280;4010;42.698;23.124;2022-09-03T05:58:50;118349.16;;;-140.64;100.00
7930;BME280;4010;42.698;23.124;2022-09-03T06:01:19;118349.16;;;-140.64;100.00
7930;BME280;4010;42.698;23.124;2022-09-03T06:03:52;118349.16;;;-140.64;100.00
7930;BME280;4010;42.698;23.124;2022-09-03T06:06:20;118349.16;;;-140.64;100.00
7930;BME280;4010;42.698;23.124;2022-09-03T06:08:50;118349.16;;;-140.64;100.00
7930;BME280;4010;42.698;23.124;2022-09-03T06:11:17;118349.16;;;-140.64;100.00
7930;BME280;4010;42.698;23.124;2022-09-03T06:13:44;118349.16;;;-140.64;100.00
7930;BME280;4010;42.698;23.124;2022-09-03T06:16:11;118349.16;;;-140.64;100.00
7930;BME280;4010;42.698;23.124;2022-09-03T06:18:40;118349.16;;;-140.64;100.00
7930;BME280;4010;42.698;23.124;2022-09-03T06:21:07;118349.16;;;-140.64;100.00
7930;BME280;4010;42.698;23.124;2022-09-03T06:23:34;118349.16;;;-140.64;100.00
7930;BME280;4010;42.698;23.124;2022-09-03T06:26:03;118349.16;;;-140.64;100.00
7930;BME280;4010;42.698;23.124;2022-09-03T06:28:30;118349.16;;;-140.64;100.00
7930;BME280;4010;42.698;23.124;2022-09-03T06:30:58;118349.16;;;-140.64;100.00
7930;BME280;4010;42.698;23.124;2022-09-03T06:33:25;118349.16;;;-140.64;100.00
7930;BME280;4010;42.698;23.124;2022-09-03T06:35:57;118349.16;;;-140.64;100.00
7930;BME280;4010;42.698;23.124;2022-09-03T06:38:25;118349.16;;;-140.64;100.00
7930;BME280;4010;42.698;23.124;2022-09-03T06:40:53;118349.16;;;-140.64;100.00
7930;BME280;4010;42.698;23.124;2022-09-03T06:43:21;118349.16;;;-140.64;100.00
7930;BME280;4010;42.698;23.124;2022-09-03T06:45:55;118349.16;;;-140.64;100.00
7930;BME280;4010;42.698;23.124;2022-09-03T06:48:22;118349.16;;;-140.64;100.00
7930;BME280;4010;42.698;23.124;2022-09-03T06:50:54;118349.16;;;-140.64;100.00
7930;BME280;4010;42.698;23.124;2022-09-03T06:53:24;118349.16;;;-140.64;100.00
7930;BME280;4010;42.698;23.124;2022-09-03T06:55:55;118349.16;;;-140.64;100.00
7930;BME280;4010;42.698;23.124;2022-09-03T06:58:22;118349.16;;;-140.64;100.00
7930;BME280;4010;42.698;23.124;2022-09-03T07:00:49;118349.16;;;-140.64;100.00
7930;BME280;4010;42.698;23.124;2022-09-03T07:03:18;118349.16;;;-140.64;100.00
7930;BME280;4010;42.698;23.124;2022-09-03T07:05:45;118349.16;;;-140.64;100.00
7930;BME280;4010;42.698;23.124;2022-09-03T07:08:12;118349.16;;;-140.64;100.00
7930;BME280;4010;42.698;23.124;2022-09-03T07:10:44;118349.16;;;-140.64;100.00
7930;BME280;4010;42.698;23.124;2022-09-03T07:13:12;118349.16;;;-140.64;100.00
7930;BME280;4010;42.698;23.124;2022-09-03T07:15:39;118349.16;;;-140.64;100.00
7930;BME280;4010;42.698;23.124;2022-09-03T07:18:06;118349.16;;;-140.64;100.00
7930;BME280;4010;42.698;23.124;2022-09-03T07:20:33;118349.16;;;-140.64;100.00
7930;BME280;4010;42.698;23.124;2022-09-03T07:22:59;118349.16;;;-140.64;100.00
7930;BME280;4010;42.698;23.124;2022-09-03T07:25:26;118349.16;;;-140.64;100.00
7930;BME280;4010;42.698;23.124;2022-09-03T07:27:54;118349.16;;;-140.64;100.00
7930;BME280;4010;42.698;23.124;2022-09-03T07:30:21;118349.16;;;-140.64;100.00
7930;BME280;4010;42.698;23.124;2022-09-03T07:32:50;118349.16;;;-140.64;100.00
7930;BME280;4010;42.698;23.124;2022-09-03T07:35:18;118349.16;;;-140.64;100.00
7930;BME280;4010;42.698;23.124;2022-09-03T07:37:45;118349.16;;;-140.64;100.00
7930;BME280;4010;42.698;23.124;2022-09-03T07:40:12;118349.16;;;-140.64;100.00
7930;BME280;4010;42.698;23.124;2022-09-03T07:42:40;118349.16;;;-140.64;100.00
7930;BME280;4010;42.698;23.124;2022-09-03T07:45:08;118349.16;;;-140.64;100.00
7930;BME280;4010;42.698;23.124;2022-09-03T07:47:36;118349.16;;;-140.64;100.00
7930;BME280;4010;42.698;23.124;2022-09-03T07:50:05;118349.16;;;-140.64;100.00
7930;BME280;4010;42.698;23.124;2022-09-03T07:52:32;118349.16;;;-140.64;100.00
7930;BME280;4010;42.698;23.124;2022-09-03T07:54:59;118349.16;;;-140.64;100.00
7930;BME280;4010;42.698;23.124;2022-09-03T07:57:27;118349.16;;;-140.64;100.00
7930;BME280;4010;42.698;23.124;2022-09-03T07:59:54;118349.16;;;-140.64;100.00
7930;BME280;4010;42.698;23.124;2022-09-03T08:02:22;118349.16;;;-140.64;100.00
7930;BME280;4010;42.698;23.124;2022-09-03T08:04:49;118349.16;;;-140.64;100.00
7930;BME280;4010;42.698;23.124;2022-09-03T08:07:16;118349.16;;;-140.64;100.00
7930;BME280;4010;42.698;23.124;2022-09-03T08:09:43;118349.16;;;-140.64;100.00
7930;BME280;4010;42.698;23.124;2022-09-03T08:12:09;118349.16;;;-140.64;100.00
7930;BME280;4010;42.698;23.124;2022-09-03T08:14:36;118349.16;;;-140.64;100.00
7930;BME280;4010;42.698;23.124;2022-09-03T08:17:03;118349.16;;;-140.64;100.00
7930;BME280;4010;42.698;23.124;2022-09-03T08:19:31;118349.16;;;-140.64;100.00
7930;BME280;4010;42.698;23.124;2022-09-03T08:21:59;118349.16;;;-140.64;100.00
7930;BME280;4010;42.698;23.124;2022-09-03T08:24:25;118349.16;;;-140.64;100.00
7930;BME280;4010;42.698;23.124;2022-09-03T08:26:52;118349.16;;;-140.64;100.00
7930;BME280;4010;42.698;23.124;2022-09-03T08:29:19;118349.16;;;-140.64;100.00
7930;BME280;4010;42.698;23.124;2022-09-03T08:31:46;118349.16;;;-140.64;100.00
7930;BME280;4010;42.698;23.124;2022-09-03T08:34:13;118349.16;;;-140.64;100.00
7930;BME280;4010;42.698;23.124;2022-09-03T08:36:43;118349.16;;;-140.64;100.00
7930;BME280;4010;42.698;23.124;2022-09-03T08:39:11;118349.16;;;-140.64;100.00
7930;BME280;4010;42.698;23.124;2022-09-03T08:44:44;118349.16;;;-140.64;100.00
7930;BME280;4010;42.698;23.124;2022-09-03T08:47:16;118349.16;;;-140.64;100.00
7930;BME280;4010;42.698;23.124;2022-09-03T08:49:46;118349.16;;;-140.64;100.00
7930;BME280;4010;42.698;23.124;2022-09-03T08:52:25;118349.16;;;-140.64;100.00
7930;BME280;4010;42.698;23.124;2022-09-03T08:55:02;118349.16;;;-140.64;100.00
7930;BME280;4010;42.698;23.124;2022-09-03T08:57:40;118349.16;;;-140.64;100.00
7930;BME280;4010;42.698;23.124;2022-09-03T09:00:09;118349.16;;;-140.64;100.00
7930;BME280;4010;42.698;23.124;2022-09-03T09:02:47;118349.16;;;-140.64;100.00
7930;BME280;4010;42.698;23.124;2022-09-03T09:05:22;118349.16;;;-140.64;100.00
7930;BME280;4010;42.698;23.124;2022-09-03T09:07:57;118349.16;;;-140.64;100.00
7930;BME280;4010;42.698;23.124;2022-09-03T09:10:32;118349.16;;;-140.64;100.00
7930;BME280;4010;42.698;23.124;2022-09-03T09:13:09;118349.16;;;-140.64;100.00
7930;BME280;4010;42.698;23.124;2022-09-03T09:15:47;118349.16;;;-140.64;100.00
7930;BME280;4010;42.698;23.124;2022-09-03T09:18:22;118349.16;;;-140.64;100.00
7930;BME280;4010;42.698;23.124;2022-09-03T09:20:58;118349.16;;;-140.64;100.00
7930;BME280;4010;42.698;23.124;2022-09-03T09:23:36;118349.16;;;-140.64;100.00
7930;BME280;4010;42.698;23.124;2022-09-03T09:26:07;118349.16;;;-140.64;100.00
7930;BME280;4010;42.698;23.124;2022-09-03T09:28:36;118349.16;;;-140.64;100.00
7930;BME280;4010;42.698;23.124;2022-09-03T09:31:06;118349.16;;;-140.64;100.00
7930;BME280;4010;42.698;23.124;2022-09-03T09:33:37;118349.16;;;-140.64;100.00
7930;BME280;4010;42.698;23.124;2022-09-03T09:36:07;118349.16;;;-140.64;100.00
7930;BME280;4010;42.698;23.124;2022-09-03T09:38:38;118349.16;;;-140.64;100.00
7930;BME280;4010;42.698;23.124;2022-09-03T09:41:09;118349.16;;;-140.64;100.00
7930;BME280;4010;42.698;23.124;2022-09-03T09:43:36;118349.16;;;-140.64;100.00
7930;BME280;4010;42.698;23.124;2022-09-03T09:46:11;118349.16;;;-140.64;100.00
7930;BME280;4010;42.698;23.124;2022-09-03T09:48:45;118349.16;;;-140.64;100.00
7930;BME280;4010;42.698;23.124;2022-09-03T09:51:18;118349.16;;;-140.64;100.00
7930;BME280;4010;42.698;23.124;2022-09-03T09:53:48;118349.16;;;-140.64;100.00
7930;BME280;4010;42.698;23.124;2022-09-03T09:56:25;118349.16;;;-140.64;100.00
7930;BME280;4010;42.698;23.124;2022-09-03T09:59:01;118349.16;;;-140.64;100.00
7930;BME280;4010;42.698;23.124;2022-09-03T10:01:27;118349.16;;;-140.64;100.00
7930;BME280;4010;42.698;23.124;2022-09-03T10:03:57;118349.16;;;-140.64;100.00
7930;BME280;4010;42.698;23.124;2022-09-03T10:06:25;118349.16;;;-140.64;100.00
7930;BME280;4010;42.698;23.124;2022-09-03T10:09:14;118349.16;;;-140.64;100.00
7930;BME280;4010;42.698;23.124;2022-09-03T10:11:43;118349.16;;;-140.64;100.00
7930;BME280;4010;42.698;23.124;2022-09-03T10:14:16;118349.16;;;-140.64;100.00
7930;BME280;4010;42.698;23.124;2022-09-03T10:16:46;118349.16;;;-140.64;100.00
7930;BME280;4010;42.698;23.124;2022-09-03T10:19:17;118349.16;;;-140.64;100.00
7930;BME280;4010;42.698;23.124;2022-09-03T10:21:52;118349.16;;;-140.64;100.00
7930;BME280;4010;42.698;23.124;2022-09-03T10:24:37;118349.16;;;-140.64;100.00
7930;BME280;4010;42.698;23.124;2022-09-03T10:27:07;118349.16;;;-140.64;100.00
7930;BME280;4010;42.698;23.124;2022-09-03T10:29:37;118349.16;;;-140.64;100.00
7930;BME280;4010;42.698;23.124;2022-09-03T10:32:23;118349.16;;;-140.64;100.00
7930;BME280;4010;42.698;23.124;2022-09-03T10:35:01;118349.16;;;-140.64;100.00
7930;BME280;4010;42.698;23.124;2022-09-03T10:37:36;118349.16;;;-140.64;100.00
7930;BME280;4010;42.698;23.124;2022-09-03T10:40:15;118349.16;;;-140.64;100.00
7930;BME280;4010;42.698;23.124;2022-09-03T10:42:50;118349.16;;;-140.64;100.00
7930;BME280;4010;42.698;23.124;2022-09-03T10:45:29;118349.16;;;-140.64;100.00
7930;BME280;4010;42.698;23.124;2022-09-03T10:48:15;118349.16;;;-140.64;100.00
7930;BME280;4010;42.698;23.124;2022-09-03T10:50:51;118349.16;;;-140.64;100.00
7930;BME280;4010;42.698;23.124;2022-09-03T10:53:27;118349.16;;;-140.64;100.00
7930;BME280;4010;42.698;23.124;2022-09-03T10:56:00;118349.16;;;-140.64;100.00
7930;BME280;4010;42.698;23.124;2022-09-03T11:01:28;118349.16;;;-140.64;100.00
7930;BME280;4010;42.698;23.124;2022-09-03T11:04:12;118349.16;;;-140.64;100.00
7930;BME280;4010;42.698;23.124;2022-09-03T11:06:48;118349.16;;;-140.64;100.00
7930;BME280;4010;42.698;23.124;2022-09-03T11:09:19;118349.16;;;-140.64;100.00
7930;BME280;4010;42.698;23.124;2022-09-03T11:11:51;118349.16;;;-140.64;100.00
7930;BME280;4010;42.698;23.124;2022-09-03T11:14:29;118349.16;;;-140.64;100.00
7930;BME280;4010;42.698;23.124;2022-09-03T11:17:02;118349.16;;;-140.64;100.00
7930;BME280;4010;42.698;23.124;2022-09-03T11:19:33;118349.16;;;-140.64;100.00
7930;BME280;4010;42.698;23.124;2022-09-03T11:22:02;118349.16;;;-140.64;100.00
7930;BME280;4010;42.698;23.124;2022-09-03T11:24:30;118349.16;;;-140.64;100.00
7930;BME280;4010;42.698;23.124;2022-09-03T11:27:12;118349.16;;;-140.64;100.00
7930;BME280;4010;42.698;23.124;2022-09-03T11:29:48;118349.16;;;-140.64;100.00
7930;BME280;4010;42.698;23.124;2022-09-03T11:32:19;118349.16;;;-140.64;100.00
7930;BME280;4010;42.698;23.124;2022-09-03T11:34:49;118349.16;;;-140.64;100.00
7930;BME280;4010;42.698;23.124;2022-09-03T11:37:19;118349.16;;;-140.64;100.00
7930;BME280;4010;42.698;23.124;2022-09-03T11:39:55;118349.16;;;-140.64;100.00
7930;BME280;4010;42.698;23.124;2022-09-03T11:42:32;118349.16;;;-140.64;100.00
7930;BME280;4010;42.698;23.124;2022-09-03T11:45:12;118349.16;;;-140.64;100.00
7930;BME280;4010;42.698;23.124;2022-09-03T11:47:41;118349.16;;;-140.64;100.00
7930;BME280;4010;42.698;23.124;2022-09-03T11:50:17;118349.16;;;-140.64;100.00
7930;BME280;4010;42.698;23.124;2022-09-03T11:52:46;118349.16;;;-140.64;100.00
7930;BME280;4010;42.698;23.124;2022-09-03T11:55:24;118349.16;;;-140.64;100.00
7930;BME280;4010;42.698;23.124;2022-09-03T11:57:52;118349.16;;;-140.64;100.00
7930;BME280;4010;42.698;23.124;2022-09-03T12:00:19;118349.16;;;-140.64;100.00
7930;BME280;4010;42.698;23.124;2022-09-03T12:02:54;118349.16;;;-140.64;100.00
7930;BME280;4010;42.698;23.124;2022-09-03T12:05:27;118349.16;;;-140.64;100.00
7930;BME280;4010;42.698;23.124;2022-09-03T12:08:17;118349.16;;;-140.64;100.00
7930;BME280;4010;42.698;23.124;2022-09-03T12:10:51;118349.16;;;-140.64;100.00
7930;BME280;4010;42.698;23.124;2022-09-03T12:13:32;118349.16;;;-140.64;100.00
7930;BME280;4010;42.698;23.124;2022-09-03T12:19:12;118349.16;;;-140.64;100.00
7930;BME280;4010;42.698;23.124;2022-09-03T12:21:47;118349.16;;;-140.64;100.00
7930;BME280;4010;42.698;23.124;2022-09-03T12:24:13;118349.16;;;-140.64;100.00
7930;BME280;4010;42.698;23.124;2022-09-03T12:26:42;118349.16;;;-140.64;100.00
7930;BME280;4010;42.698;23.124;2022-09-03T12:29:22;118349.16;;;-140.64;100.00
7930;BME280;4010;42.698;23.124;2022-09-03T12:31:50;118349.16;;;-140.64;100.00
7930;BME280;4010;42.698;23.124;2022-09-03T12:34:19;118349.16;;;-140.64;100.00
7930;BME280;4010;42.698;23.124;2022-09-03T12:36:48;118349.16;;;-140.64;100.00
7930;BME280;4010;42.698;23.124;2022-09-03T12:39:18;118349.16;;;-140.64;100.00
7930;BME280;4010;42.698;23.124;2022-09-03T12:41:55;118349.16;;;-140.64;100.00
7930;BME280;4010;42.698;23.124;2022-09-03T12:44:28;118349.16;;;-140.64;100.00
7930;BME280;4010;42.698;23.124;2022-09-03T12:47:00;118349.16;;;-140.64;100.00
7930;BME280;4010;42.698;23.124;2022-09-03T12:49:33;118349.16;;;-140.64;100.00
7930;BME280;4010;42.698;23.124;2022-09-03T12:52:05;118349.16;;;-140.64;100.00
7930;BME280;4010;42.698;23.124;2022-09-03T12:54:37;118349.16;;;-140.64;100.00
7930;BME280;4010;42.698;23.124;2022-09-03T12:57:08;118349.16;;;-140.64;100.00
7930;BME280;4010;42.698;23.124;2022-09-03T12:59:37;118349.16;;;-140.64;100.00
7930;BME280;4010;42.698;23.124;2022-09-03T13:02:14;118349.16;;;-140.64;100.00
7930;BME280;4010;42.698;23.124;2022-09-03T13:04:45;118349.16;;;-140.64;100.00